createdAt,value
2019-06-26T00:00:25.631Z,21.50
2019-06-26T00:02:53.193Z,21.40
2019-06-26T00:05:20.751Z,21.40
2019-06-26T00:07:48.097Z,21.30
2019-06-26T00:10:15.631Z,21.30
2019-06-26T00:12:43.315Z,21.30
2019-06-26T00:15:11.096Z,21.20
2019-06-26T00:17:38.681Z,21.20
2019-06-26T00:20:07.225Z,21.20
2019-06-26T00:22:34.675Z,21.10
2019-06-26T00:25:02.751Z,21.10
2019-06-26T00:27:30.225Z,21.10
2019-06-26T00:29:57.569Z,21.00
2019-06-26T00:32:25.769Z,21.00
2019-06-26T00:34:53.292Z,21.00
2019-06-26T00:37:21.013Z,21.00
2019-06-26T00:39:49.466Z,21.00
2019-06-26T00:42:16.778Z,20.90
2019-06-26T00:44:44.135Z,20.90
2019-06-26T00:47:12.108Z,20.80
2019-06-26T00:49:39.483Z,20.80
2019-06-26T00:52:07.084Z,20.80
2019-06-26T00:54:34.476Z,20.70
2019-06-26T00:57:02.050Z,20.60
2019-06-26T00:59:29.930Z,20.60
2019-06-26T01:01:57.218Z,20.50
2019-06-26T01:04:29.278Z,20.50
2019-06-26T01:06:56.711Z,20.40
2019-06-26T01:09:24.085Z,20.50
2019-06-26T01:11:51.385Z,20.50
2019-06-26T01:14:18.841Z,20.50
2019-06-26T01:16:46.941Z,20.40
2019-06-26T01:19:14.435Z,20.30
2019-06-26T01:21:41.867Z,20.30
2019-06-26T01:24:09.407Z,20.30
2019-06-26T01:26:36.901Z,20.30
2019-06-26T01:29:04.667Z,20.20
2019-06-26T01:31:32.082Z,20.20
2019-06-26T01:33:59.437Z,20.10
2019-06-26T01:36:27.010Z,20.10
2019-06-26T01:38:54.451Z,20.10
2019-06-26T01:41:21.774Z,20.10
2019-06-26T01:43:49.257Z,20.10
2019-06-26T01:46:16.627Z,20.00
2019-06-26T01:48:44.080Z,20.00
2019-06-26T01:51:11.734Z,20.00
2019-06-26T01:53:39.051Z,19.90
2019-06-26T01:56:06.724Z,19.90
2019-06-26T01:58:34.117Z,19.90
2019-06-26T02:01:01.438Z,19.90
2019-06-26T02:03:28.796Z,19.90
2019-06-26T02:05:56.352Z,19.90
2019-06-26T02:08:23.856Z,19.90
2019-06-26T02:10:51.310Z,19.80
2019-06-26T02:13:18.904Z,19.80
2019-06-26T02:15:46.357Z,19.70
2019-06-26T02:18:36.196Z,19.70
2019-06-26T02:21:04.027Z,19.70
2019-06-26T02:23:31.689Z,19.70
2019-06-26T02:25:59.127Z,19.70
2019-06-26T02:28:26.733Z,19.70
2019-06-26T02:30:54.179Z,19.70
2019-06-26T02:33:21.605Z,20.30
2019-06-26T02:35:49.025Z,19.70
2019-06-26T02:38:16.321Z,19.60
2019-06-26T02:40:43.729Z,19.60
2019-06-26T02:43:11.258Z,19.60
2019-06-26T02:45:38.693Z,19.60
2019-06-26T02:48:06.211Z,19.60
2019-06-26T02:50:33.748Z,19.60
2019-06-26T02:53:01.150Z,19.60
2019-06-26T02:55:28.603Z,19.60
2019-06-26T02:57:55.996Z,19.60
2019-06-26T03:00:23.353Z,19.60
2019-06-26T03:02:50.715Z,19.70
2019-06-26T03:05:18.125Z,19.60
2019-06-26T03:07:45.632Z,19.70
2019-06-26T03:10:13.258Z,19.70
2019-06-26T03:12:40.701Z,19.70
2019-06-26T03:15:09.626Z,19.70
2019-06-26T03:17:37.348Z,19.70
2019-06-26T03:20:07.281Z,19.70
2019-06-26T03:22:34.681Z,19.70
2019-06-26T03:25:02.166Z,19.80
2019-06-26T03:27:29.885Z,19.80
2019-06-26T03:29:57.285Z,19.80
2019-06-26T03:32:24.734Z,19.90
2019-06-26T03:34:52.077Z,19.90
2019-06-26T03:37:19.583Z,19.90
2019-06-26T03:39:47.293Z,20.00
2019-06-26T03:42:14.703Z,20.00
2019-06-26T03:44:43.009Z,20.10
2019-06-26T03:47:10.530Z,20.20
2019-06-26T03:49:38.023Z,20.20
2019-06-26T03:52:05.476Z,20.30
2019-06-26T03:54:32.998Z,20.40
2019-06-26T03:57:00.278Z,20.40
2019-06-26T03:59:27.595Z,20.50
2019-06-26T04:01:55.113Z,20.60
2019-06-26T04:04:22.420Z,20.70
2019-06-26T04:06:49.830Z,20.80
2019-06-26T04:09:17.156Z,20.90
2019-06-26T04:11:44.776Z,21.00
2019-06-26T04:14:12.064Z,21.10
2019-06-26T04:16:39.395Z,21.30
2019-06-26T04:19:06.709Z,21.40
2019-06-26T04:21:34.036Z,21.50
2019-06-26T04:24:01.499Z,21.60
2019-06-26T04:26:29.391Z,21.70
2019-06-26T04:28:56.670Z,21.90
2019-06-26T04:31:23.990Z,22.00
2019-06-26T04:33:51.286Z,22.00
2019-06-26T04:36:18.598Z,21.90
2019-06-26T04:38:45.902Z,22.20
2019-06-26T04:41:13.269Z,22.30
2019-06-26T04:43:40.805Z,22.00
2019-06-26T04:46:08.404Z,22.50
2019-06-26T04:48:36.125Z,22.60
2019-06-26T04:51:04.735Z,22.80
2019-06-26T04:53:32.203Z,22.90
2019-06-26T04:55:59.478Z,23.10
2019-06-26T04:58:26.802Z,23.20
2019-06-26T05:00:54.453Z,23.40
2019-06-26T05:03:21.847Z,23.60
2019-06-26T05:05:49.194Z,23.70
2019-06-26T05:08:16.595Z,23.90
2019-06-26T05:10:45.087Z,23.90
2019-06-26T05:13:12.447Z,24.10
2019-06-26T05:15:39.783Z,24.30
2019-06-26T05:18:07.164Z,24.60
2019-06-26T05:20:34.690Z,24.60
2019-06-26T05:23:02.044Z,24.70
2019-06-26T05:25:29.386Z,24.90
2019-06-26T05:27:56.689Z,25.10
2019-06-26T05:30:24.111Z,25.20
2019-06-26T05:32:51.711Z,25.40
2019-06-26T05:35:19.249Z,25.60
2019-06-26T05:37:46.658Z,25.80
2019-06-26T05:40:14.359Z,26.00
2019-06-26T05:42:41.973Z,26.20
2019-06-26T05:45:11.997Z,26.40
2019-06-26T05:47:39.625Z,26.60
2019-06-26T05:50:08.370Z,26.80
2019-06-26T05:52:35.895Z,27.00
2019-06-26T05:55:03.953Z,27.10
2019-06-26T05:57:32.809Z,27.40
2019-06-26T06:00:00.885Z,27.50
2019-06-26T06:02:29.595Z,27.80
2019-06-26T06:04:57.408Z,27.50
2019-06-26T06:07:27.848Z,28.20
2019-06-26T06:09:59.029Z,28.40
2019-06-26T06:12:28.692Z,28.60
2019-06-26T06:14:56.091Z,28.80
2019-06-26T06:17:24.653Z,29.00
2019-06-26T06:19:52.069Z,29.10
2019-06-26T06:22:20.393Z,29.30
2019-06-26T06:24:48.126Z,29.50
2019-06-26T06:27:15.683Z,29.50
2019-06-26T06:29:44.702Z,29.70
2019-06-26T06:32:12.092Z,29.80
2019-06-26T06:34:39.572Z,29.90
2019-06-26T06:37:10.688Z,30.10
2019-06-26T06:39:38.648Z,30.20
2019-06-26T06:42:06.187Z,30.50
2019-06-26T06:44:33.535Z,30.80
2019-06-26T06:47:04.399Z,31.10
2019-06-26T06:49:30.279Z,31.30
2019-06-26T06:51:58.588Z,31.50
2019-06-26T06:54:26.573Z,31.70
2019-06-26T06:56:54.271Z,31.90
2019-06-26T06:59:22.147Z,32.10
2019-06-26T07:01:50.975Z,32.20
2019-06-26T07:04:18.450Z,32.40
2019-06-26T07:06:46.375Z,32.70
2019-06-26T07:09:15.052Z,32.80
2019-06-26T07:11:42.521Z,32.80
2019-06-26T07:14:09.989Z,32.70
2019-06-26T07:16:37.564Z,32.60
2019-06-26T07:19:05.827Z,32.60
2019-06-26T07:21:36.281Z,32.60
2019-06-26T07:24:04.312Z,32.70
2019-06-26T07:26:31.616Z,32.80
2019-06-26T07:28:59.377Z,32.90
2019-06-26T07:31:26.949Z,33.00
2019-06-26T07:33:55.700Z,33.20
2019-06-26T07:36:23.448Z,33.30
2019-06-26T07:38:50.779Z,33.40
2019-06-26T07:41:18.220Z,33.60
2019-06-26T07:43:45.621Z,33.70
2019-06-26T07:46:13.057Z,33.70
2019-06-26T07:48:41.051Z,33.80
2019-06-26T07:51:09.122Z,33.80
2019-06-26T07:53:36.759Z,33.70
2019-06-26T07:56:04.409Z,33.80
2019-06-26T07:58:31.997Z,33.90
2019-06-26T08:00:59.457Z,33.90
2019-06-26T08:03:28.009Z,34.00
2019-06-26T08:05:55.494Z,34.10
2019-06-26T08:08:24.144Z,34.20
2019-06-26T08:10:51.671Z,34.20
2019-06-26T08:13:19.151Z,34.30
2019-06-26T08:15:47.751Z,34.40
2019-06-26T08:18:15.246Z,34.40
2019-06-26T08:21:00.375Z,34.50
2019-06-26T08:23:13.504Z,34.50
2019-06-26T08:25:41.575Z,34.70
2019-06-26T08:28:08.966Z,34.70
2019-06-26T08:30:36.860Z,34.80
2019-06-26T08:33:07.527Z,34.90
2019-06-26T08:35:36.701Z,35.00
2019-06-26T08:38:11.319Z,35.20
2019-06-26T08:40:36.256Z,35.40
2019-06-26T08:43:03.708Z,35.60
2019-06-26T08:45:31.427Z,35.80
2019-06-26T08:48:16.382Z,36.10
2019-06-26T08:50:29.375Z,36.40
2019-06-26T08:52:56.932Z,36.50
2019-06-26T08:55:25.359Z,36.70
2019-06-26T08:57:53.416Z,37.10
2019-06-26T09:00:23.126Z,37.50
2019-06-26T09:02:51.647Z,37.80
2019-06-26T09:05:20.717Z,38.10
2019-06-26T09:07:48.921Z,38.40
2019-06-26T09:10:16.832Z,38.50
2019-06-26T09:12:44.582Z,38.90
2019-06-26T09:15:12.108Z,39.30
2019-06-26T09:17:39.928Z,39.70
2019-06-26T09:20:08.551Z,40.10
2019-06-26T09:22:36.669Z,40.30
2019-06-26T09:25:20.315Z,40.70
2019-06-26T09:27:34.498Z,41.10
2019-06-26T09:30:02.368Z,41.60
2019-06-26T09:32:31.297Z,42.20
2019-06-26T09:34:58.813Z,42.80
2019-06-26T09:37:26.522Z,43.60
2019-06-26T09:39:53.841Z,44.40
2019-06-26T09:42:21.315Z,45.20
2019-06-26T09:44:48.843Z,46.10
2019-06-26T09:47:16.334Z,46.90
2019-06-26T09:49:43.771Z,47.10
2019-06-26T09:52:11.799Z,47.50
2019-06-26T09:54:39.349Z,47.60
2019-06-26T09:57:06.984Z,47.70
2019-06-26T09:59:34.450Z,47.90
2019-06-26T10:02:02.092Z,48.50
2019-06-26T10:04:30.445Z,49.00
2019-06-26T10:06:59.393Z,49.50
2019-06-26T10:09:32.411Z,49.50
2019-06-26T10:12:02.248Z,49.40
2019-06-26T10:14:46.493Z,49.70
2019-06-26T10:16:59.166Z,50.30
2019-06-26T10:19:27.585Z,50.40
2019-06-26T10:21:57.998Z,50.60
2019-06-26T10:24:27.775Z,50.70
2019-06-26T10:26:55.133Z,50.60
2019-06-26T10:29:22.815Z,50.80
2019-06-26T10:31:50.317Z,50.70
2019-06-26T10:34:17.744Z,50.80
2019-06-26T10:36:45.615Z,51.10
2019-06-26T10:39:13.688Z,51.50
2019-06-26T10:41:41.100Z,51.60
2019-06-26T10:44:08.930Z,51.50
2019-06-26T10:46:36.597Z,50.80
2019-06-26T10:49:04.157Z,50.70
2019-06-26T10:51:31.688Z,51.00
2019-06-26T10:53:59.165Z,51.10
2019-06-26T10:56:28.780Z,51.00
2019-06-26T10:58:56.553Z,50.80
2019-06-26T11:01:24.173Z,50.60
2019-06-26T11:03:51.848Z,49.50
2019-06-26T11:06:19.221Z,48.70
2019-06-26T11:08:46.685Z,48.50
2019-06-26T11:11:14.332Z,48.40
2019-06-26T11:13:41.821Z,48.30
2019-06-26T11:16:09.151Z,47.80
2019-06-26T11:18:36.669Z,47.30
2019-06-26T11:21:04.363Z,46.80
2019-06-26T11:23:32.095Z,46.50
2019-06-26T11:25:59.556Z,46.40
2019-06-26T11:28:28.339Z,46.20
2019-06-26T11:30:55.732Z,46.00
2019-06-26T11:33:24.441Z,45.80
2019-06-26T11:35:51.841Z,45.70
2019-06-26T11:38:19.299Z,45.60
2019-06-26T11:40:46.712Z,45.40
2019-06-26T11:43:14.155Z,45.10
2019-06-26T11:45:42.673Z,44.80
2019-06-26T11:48:10.062Z,44.70
2019-06-26T11:50:37.445Z,44.40
2019-06-26T11:53:04.977Z,44.10
2019-06-26T11:55:32.664Z,43.80
2019-06-26T11:58:00.129Z,43.50
2019-06-26T12:00:27.560Z,42.70
2019-06-26T12:02:54.987Z,42.10
2019-06-26T12:05:22.783Z,41.90
2019-06-26T12:07:50.512Z,41.70
2019-06-26T12:10:18.571Z,41.60
2019-06-26T12:12:46.210Z,41.60
2019-06-26T12:15:14.423Z,41.50
2019-06-26T12:17:42.041Z,41.40
2019-06-26T12:20:18.418Z,41.20
2019-06-26T12:22:40.817Z,41.00
2019-06-26T12:25:08.513Z,40.90
2019-06-26T12:27:36.529Z,40.60
2019-06-26T12:30:05.547Z,40.50
2019-06-26T12:32:42.492Z,40.30
2019-06-26T12:35:05.767Z,40.20
2019-06-26T12:37:38.480Z,40.10
2019-06-26T12:40:07.633Z,39.90
2019-06-26T12:42:35.147Z,40.00
2019-06-26T12:45:03.392Z,39.80
2019-06-26T12:47:30.991Z,39.80
2019-06-26T12:49:58.273Z,39.80
2019-06-26T12:52:25.910Z,39.70
2019-06-26T12:54:53.451Z,39.60
2019-06-26T12:57:20.873Z,39.50
2019-06-26T12:59:57.325Z,39.50
2019-06-26T13:02:17.401Z,39.50
2019-06-26T13:04:45.275Z,39.50
2019-06-26T13:07:13.751Z,39.50
2019-06-26T13:09:42.471Z,39.40
2019-06-26T13:12:12.163Z,39.40
2019-06-26T13:14:40.816Z,39.50
2019-06-26T13:17:08.330Z,39.40
2019-06-26T13:20:05.220Z,39.30
2019-06-26T13:22:35.644Z,40.00
2019-06-26T13:25:04.291Z,38.90
2019-06-26T13:27:32.514Z,39.10
2019-06-26T13:30:00.007Z,39.10
2019-06-26T13:32:27.317Z,39.10
2019-06-26T13:34:55.824Z,39.10
2019-06-26T13:37:23.180Z,39.00
2019-06-26T13:39:51.428Z,38.80
2019-06-26T13:42:19.521Z,38.80
2019-06-26T13:44:47.190Z,38.60
2019-06-26T13:47:14.979Z,38.60
2019-06-26T13:49:42.719Z,38.70
2019-06-26T13:52:10.594Z,38.60
2019-06-26T13:54:38.157Z,38.50
2019-06-26T13:57:05.665Z,38.50
2019-06-26T13:59:34.290Z,38.50
2019-06-26T14:02:02.402Z,38.40
2019-06-26T14:04:31.360Z,38.40
2019-06-26T14:06:59.403Z,38.40
2019-06-26T14:09:26.946Z,38.40
2019-06-26T14:11:54.983Z,38.40
2019-06-26T14:14:37.706Z,38.30
2019-06-26T14:16:54.232Z,38.10
2019-06-26T14:19:21.725Z,38.00
2019-06-26T14:21:49.390Z,37.90
2019-06-26T14:24:17.786Z,37.80
2019-06-26T14:26:45.381Z,37.80
2019-06-26T14:29:20.780Z,37.70
2019-06-26T14:31:42.607Z,37.70
2019-06-26T14:34:10.494Z,37.70
2019-06-26T14:36:40.302Z,37.60
2019-06-26T14:39:08.160Z,37.60
2019-06-26T14:41:39.068Z,37.50
2019-06-26T14:44:06.460Z,37.50
2019-06-26T14:46:34.290Z,37.40
2019-06-26T14:49:03.345Z,37.30
2019-06-26T14:51:43.625Z,37.30
2019-06-26T14:54:02.595Z,37.20
2019-06-26T14:56:29.958Z,37.10
2019-06-26T14:58:57.592Z,37.00
2019-06-26T15:01:27.304Z,36.90
2019-06-26T15:03:54.850Z,36.90
2019-06-26T15:06:23.039Z,36.80
2019-06-26T15:08:53.706Z,36.80
2019-06-26T15:11:21.819Z,36.80
2019-06-26T15:13:49.838Z,36.70
2019-06-26T15:16:17.350Z,36.60
2019-06-26T15:18:53.732Z,36.60
2019-06-26T15:21:40.422Z,36.50
2019-06-26T15:24:08.065Z,36.50
2019-06-26T15:26:35.715Z,36.50
2019-06-26T15:29:03.440Z,36.30
2019-06-26T15:31:31.042Z,36.20
2019-06-26T15:34:04.330Z,36.10
2019-06-26T15:36:31.897Z,36.10
2019-06-26T15:38:59.447Z,36.00
2019-06-26T15:41:26.872Z,36.00
2019-06-26T15:43:54.240Z,35.90
2019-06-26T15:46:21.792Z,35.90
2019-06-26T15:48:50.406Z,35.70
2019-06-26T15:51:18.417Z,35.60
2019-06-26T15:53:46.034Z,35.60
2019-06-26T15:56:13.391Z,35.60
2019-06-26T15:58:40.912Z,35.50
2019-06-26T16:01:08.873Z,35.40
2019-06-26T16:03:36.749Z,35.40
2019-06-26T16:06:05.599Z,35.30
2019-06-26T16:08:33.126Z,35.20
2019-06-26T16:11:01.935Z,35.10
2019-06-26T16:13:29.737Z,35.00
2019-06-26T16:15:57.838Z,34.90
2019-06-26T16:18:34.388Z,34.80
2019-06-26T16:21:05.598Z,34.80
2019-06-26T16:23:34.314Z,34.70
2019-06-26T16:26:28.329Z,34.60
2019-06-26T16:28:55.768Z,34.60
2019-06-26T16:31:26.388Z,34.40
2019-06-26T16:33:54.553Z,34.40
2019-06-26T16:36:22.135Z,34.30
2019-06-26T16:38:49.759Z,34.20
2019-06-26T16:41:18.224Z,34.20
2019-06-26T16:43:47.595Z,34.10
2019-06-26T16:46:16.705Z,34.00
2019-06-26T16:48:44.755Z,34.10
2019-06-26T16:51:12.936Z,34.00
2019-06-26T16:53:40.429Z,33.90
2019-06-26T16:56:08.022Z,33.90
2019-06-26T16:58:36.425Z,33.80
2019-06-26T17:01:05.053Z,33.70
2019-06-26T17:03:33.396Z,33.60
2019-06-26T17:06:02.703Z,33.50
2019-06-26T17:08:30.568Z,33.50
2019-06-26T17:11:00.894Z,33.30
2019-06-26T17:13:28.648Z,33.30
2019-06-26T17:15:56.234Z,33.20
2019-06-26T17:18:23.753Z,33.10
2019-06-26T17:20:51.418Z,33.00
2019-06-26T17:23:18.876Z,32.90
2019-06-26T17:25:46.407Z,32.90
2019-06-26T17:28:13.737Z,32.80
2019-06-26T17:30:41.218Z,32.70
2019-06-26T17:33:08.729Z,32.70
2019-06-26T17:35:36.668Z,32.60
2019-06-26T17:38:04.229Z,32.40
2019-06-26T17:40:31.635Z,32.40
2019-06-26T17:43:11.839Z,32.30
2019-06-26T17:45:28.510Z,32.20
2019-06-26T17:47:55.983Z,32.20
2019-06-26T17:50:23.369Z,32.10
2019-06-26T17:52:50.988Z,32.10
2019-06-26T17:55:18.742Z,31.90
2019-06-26T17:57:50.188Z,31.80
2019-06-26T18:00:24.503Z,31.80
2019-06-26T18:02:52.410Z,31.70
2019-06-26T18:05:19.883Z,31.60
2019-06-26T18:07:47.538Z,31.50
2019-06-26T18:10:17.542Z,31.40
2019-06-26T18:12:57.507Z,31.20
2019-06-26T18:15:25.022Z,30.80
2019-06-26T18:17:52.471Z,31.10
2019-06-26T18:20:20.719Z,30.90
2019-06-26T18:22:48.493Z,30.70
2019-06-26T18:25:16.760Z,30.60
2019-06-26T18:27:44.558Z,30.50
2019-06-26T18:30:13.574Z,30.40
2019-06-26T18:32:41.178Z,30.30
2019-06-26T18:35:12.357Z,30.20
2019-06-26T18:37:40.253Z,30.10
2019-06-26T18:40:08.017Z,30.00
2019-06-26T18:42:35.579Z,29.80
2019-06-26T18:45:04.750Z,29.70
2019-06-26T18:47:32.543Z,29.60
2019-06-26T18:50:00.056Z,29.40
2019-06-26T18:52:28.844Z,29.30
2019-06-26T18:54:57.237Z,29.10
2019-06-26T18:57:30.356Z,29.00
2019-06-26T18:59:58.795Z,28.80
2019-06-26T19:02:27.721Z,28.70
2019-06-26T19:04:56.759Z,28.50
2019-06-26T19:07:25.667Z,28.40
2019-06-26T19:09:52.999Z,28.20
2019-06-26T19:12:23.797Z,28.10
2019-06-26T19:14:49.830Z,28.00
2019-06-26T19:17:17.268Z,27.90
2019-06-26T19:19:44.631Z,27.80
2019-06-26T19:22:12.089Z,27.60
2019-06-26T19:24:39.644Z,27.60
2019-06-26T19:27:07.820Z,27.50
2019-06-26T19:29:35.503Z,27.40
2019-06-26T19:32:03.167Z,27.30
2019-06-26T19:34:30.912Z,27.20
2019-06-26T19:36:58.463Z,27.10
2019-06-26T19:39:26.020Z,27.00
2019-06-26T19:41:54.075Z,27.00
2019-06-26T19:44:21.794Z,26.90
2019-06-26T19:46:51.160Z,26.90
2019-06-26T19:49:18.830Z,26.80
2019-06-26T19:51:46.384Z,26.80
2019-06-26T19:54:26.739Z,26.70
2019-06-26T19:56:50.172Z,26.90
2019-06-26T19:59:18.642Z,26.60
2019-06-26T20:01:46.440Z,26.60
2019-06-26T20:04:15.396Z,26.60
2019-06-26T20:06:42.828Z,26.50
2019-06-26T20:09:10.198Z,26.50
2019-06-26T20:11:38.295Z,26.50
2019-06-26T20:14:05.988Z,26.40
2019-06-26T20:16:34.249Z,26.40
2019-06-26T20:19:04.007Z,26.20
2019-06-26T20:21:32.669Z,26.20
2019-06-26T20:24:00.091Z,26.10
2019-06-26T20:26:28.560Z,26.10
2019-06-26T20:28:56.304Z,26.10
2019-06-26T20:31:23.936Z,26.00
2019-06-26T20:33:51.336Z,26.00
2019-06-26T20:36:19.173Z,26.00
2019-06-26T20:38:46.651Z,25.90
2019-06-26T20:41:14.059Z,25.90
2019-06-26T20:43:41.464Z,25.80
2019-06-26T20:46:08.875Z,25.90
2019-06-26T20:48:36.284Z,25.90
2019-06-26T20:51:03.994Z,25.80
2019-06-26T20:53:31.483Z,26.20
2019-06-26T20:55:58.993Z,25.80
2019-06-26T20:58:26.340Z,25.80
2019-06-26T21:00:53.691Z,25.70
2019-06-26T21:03:21.442Z,25.90
2019-06-26T21:05:48.990Z,25.80
2019-06-26T21:08:16.575Z,25.90
2019-06-26T21:10:44.284Z,25.80
2019-06-26T21:13:12.030Z,25.70
2019-06-26T21:15:39.455Z,25.70
2019-06-26T21:18:06.775Z,25.70
2019-06-26T21:20:34.204Z,25.70
2019-06-26T21:23:01.530Z,25.70
2019-06-26T21:25:31.704Z,25.70
2019-06-26T21:27:59.202Z,25.70
2019-06-26T21:30:26.805Z,25.70
2019-06-26T21:32:54.279Z,25.70
2019-06-26T21:35:21.661Z,25.70
2019-06-26T21:37:49.155Z,25.50
2019-06-26T21:40:16.796Z,25.30
2019-06-26T21:42:59.910Z,25.50
2019-06-26T21:45:27.452Z,25.40
2019-06-26T21:47:54.740Z,25.40
2019-06-26T21:50:22.131Z,25.30
2019-06-26T21:52:50.122Z,25.30
2019-06-26T21:55:33.255Z,25.30
2019-06-26T21:58:07.484Z,25.20
2019-06-26T22:00:53.516Z,25.20
2019-06-26T22:03:40.229Z,25.10
2019-06-26T22:06:09.714Z,25.20
2019-06-26T22:08:45.285Z,25.10
2019-06-26T22:11:13.030Z,25.00
2019-06-26T22:13:40.636Z,25.00
2019-06-26T22:16:08.325Z,25.10
2019-06-26T22:18:35.890Z,25.00
2019-06-26T22:21:03.566Z,25.00
2019-06-26T22:23:32.163Z,24.90
2019-06-26T22:25:59.727Z,24.90
2019-06-26T22:28:27.366Z,24.90
2019-06-26T22:30:54.770Z,24.90
2019-06-26T22:33:22.333Z,24.80
2019-06-26T22:35:50.175Z,24.80
2019-06-26T22:38:19.621Z,24.80
2019-06-26T22:40:47.203Z,24.70
2019-06-26T22:43:14.934Z,24.70
2019-06-26T22:45:42.368Z,24.70
2019-06-26T22:48:10.083Z,24.70
2019-06-26T22:50:37.786Z,24.60
2019-06-26T22:53:05.663Z,24.60
2019-06-26T22:55:33.227Z,24.60
2019-06-26T22:58:00.763Z,24.60
2019-06-26T23:00:28.787Z,24.60
2019-06-26T23:02:56.376Z,24.50
2019-06-26T23:05:23.873Z,24.50
2019-06-26T23:07:51.297Z,24.50
2019-06-26T23:10:19.660Z,24.40
2019-06-26T23:12:47.281Z,24.40
2019-06-26T23:15:16.871Z,24.40
2019-06-26T23:17:44.408Z,24.40
2019-06-26T23:20:11.972Z,24.30
2019-06-26T23:22:39.355Z,24.30
2019-06-26T23:25:09.160Z,24.30
2019-06-26T23:27:36.894Z,24.80
2019-06-26T23:30:08.503Z,24.30
2019-06-26T23:32:35.841Z,24.30
2019-06-26T23:35:03.711Z,24.30
2019-06-26T23:37:45.567Z,24.30
2019-06-26T23:40:13.196Z,24.20
2019-06-26T23:42:40.717Z,24.20
2019-06-26T23:45:09.397Z,24.20
2019-06-26T23:47:36.776Z,24.10
2019-06-26T23:50:04.640Z,24.10
2019-06-26T23:52:32.062Z,23.30
2019-06-26T23:54:59.604Z,23.90
2019-06-26T23:57:26.951Z,23.90
2019-06-26T23:59:55.425Z,23.90
